createdAt,value
2019-02-12T00:00:22.809Z,100069.33
2019-02-12T00:02:50.663Z,100061.13
2019-02-12T00:05:17.252Z,100058.75
2019-02-12T00:07:43.903Z,100055.77
2019-02-12T00:10:10.460Z,100056.44
2019-02-12T00:12:37.042Z,100056.95
2019-02-12T00:15:05.491Z,100057.52
2019-02-12T00:17:32.134Z,100067.70
2019-02-12T00:19:58.717Z,100055.44
2019-02-12T00:22:25.358Z,100059.39
2019-02-12T00:24:51.936Z,100057.87
2019-02-12T00:27:18.535Z,100049.41
2019-02-12T00:29:45.246Z,100055.95
2019-02-12T00:32:11.908Z,100054.09
2019-02-12T00:34:38.566Z,100054.25
2019-02-12T00:37:05.139Z,100057.39
2019-02-12T00:39:31.710Z,100057.52
2019-02-12T00:41:58.358Z,100057.68
2019-02-12T00:44:24.974Z,100059.34
2019-02-12T00:46:51.523Z,100062.00
2019-02-12T00:49:18.064Z,100060.34
2019-02-12T00:51:44.717Z,100065.13
2019-02-12T00:54:11.321Z,100068.13
2019-02-12T00:56:37.913Z,100072.25
2019-02-12T00:59:04.466Z,100077.55
2019-02-12T01:01:31.636Z,100075.93
2019-02-12T01:03:58.270Z,100079.05
2019-02-12T01:06:24.902Z,100085.56
2019-02-12T01:08:51.582Z,100091.70
2019-02-12T01:11:18.140Z,100097.00
2019-02-12T01:13:44.765Z,100090.80
2019-02-12T01:16:11.387Z,100090.95
2019-02-12T01:18:39.172Z,100100.72
2019-02-12T01:21:06.218Z,100099.54
2019-02-12T01:23:36.471Z,100098.97
2019-02-12T01:26:03.794Z,100089.31
2019-02-12T01:28:31.175Z,100101.05
2019-02-12T01:30:57.849Z,100101.35
2019-02-12T01:33:24.462Z,100107.74
2019-02-12T01:35:51.095Z,100104.06
2019-02-12T01:38:17.649Z,100113.99
2019-02-12T01:40:45.769Z,100112.31
2019-02-12T01:43:12.703Z,100116.70
2019-02-12T01:45:39.323Z,100114.58
2019-02-12T01:48:06.337Z,100114.87
2019-02-12T01:50:32.883Z,100117.06
2019-02-12T01:52:59.443Z,100119.36
2019-02-12T01:55:26.015Z,100123.77
2019-02-12T01:57:52.711Z,100127.59
2019-02-12T02:00:19.272Z,100118.91
2019-02-12T02:02:45.879Z,100128.94
2019-02-12T02:05:12.497Z,100134.43
2019-02-12T02:07:39.070Z,100132.93
2019-02-12T02:10:10.984Z,100145.54
2019-02-12T02:12:37.607Z,100144.04
2019-02-12T02:15:08.638Z,100147.18
2019-02-12T02:17:36.423Z,100155.50
2019-02-12T02:20:07.695Z,100158.09
2019-02-12T02:22:34.293Z,100158.77
2019-02-12T02:25:00.866Z,100159.13
2019-02-12T02:27:27.492Z,100170.14
2019-02-12T02:29:54.050Z,100177.15
2019-02-12T02:32:20.656Z,100185.75
2019-02-12T02:34:47.249Z,100183.07
2019-02-12T02:37:13.936Z,100179.70
2019-02-12T02:39:41.676Z,100188.77
2019-02-12T02:42:11.194Z,100199.65
2019-02-12T02:44:37.790Z,100206.13
2019-02-12T02:47:04.769Z,100213.70
2019-02-12T02:49:31.336Z,100223.92
2019-02-12T02:51:57.936Z,100232.95
2019-02-12T02:54:24.477Z,100230.37
2019-02-12T02:56:51.064Z,100237.52
2019-02-12T02:59:18.354Z,100246.59
2019-02-12T03:01:44.953Z,100238.62
2019-02-12T03:04:11.514Z,100255.06
2019-02-12T03:06:38.088Z,100265.50
2019-02-12T03:09:06.795Z,100269.40
2019-02-12T03:11:37.221Z,100263.55
2019-02-12T03:14:03.793Z,100276.89
2019-02-12T03:16:30.389Z,100282.61
2019-02-12T03:18:56.954Z,100279.56
2019-02-12T03:21:23.651Z,100289.16
2019-02-12T03:23:50.216Z,100294.97
2019-02-12T03:26:16.878Z,100302.70
2019-02-12T03:28:43.488Z,100302.77
2019-02-12T03:31:10.042Z,100297.25
2019-02-12T03:33:36.720Z,100312.64
2019-02-12T03:36:03.373Z,100308.03
2019-02-12T03:38:29.988Z,100312.02
2019-02-12T03:40:56.619Z,100318.16
2019-02-12T03:43:23.669Z,100324.45
2019-02-12T03:45:50.207Z,100333.15
2019-02-12T03:48:16.782Z,100330.36
2019-02-12T03:50:43.338Z,100325.52
2019-02-12T03:53:09.969Z,100333.72
2019-02-12T03:55:36.534Z,100338.19
2019-02-12T03:58:03.173Z,100338.08
2019-02-12T04:00:29.808Z,100340.18
2019-02-12T04:03:01.439Z,100340.66
2019-02-12T04:05:28.100Z,100344.35
2019-02-12T04:07:54.869Z,100346.00
2019-02-12T04:10:21.492Z,100354.44
2019-02-12T04:12:48.055Z,100353.98
2019-02-12T04:15:16.383Z,100352.86
2019-02-12T04:17:42.950Z,100354.17
2019-02-12T04:20:09.598Z,100358.87
2019-02-12T04:22:36.204Z,100365.36
2019-02-12T04:25:03.356Z,100361.48
2019-02-12T04:27:29.892Z,100365.86
2019-02-12T04:29:56.532Z,100359.34
2019-02-12T04:32:23.094Z,100371.98
2019-02-12T04:34:49.754Z,100368.52
2019-02-12T04:37:16.316Z,100369.22
2019-02-12T04:39:42.888Z,100374.05
2019-02-12T04:42:09.522Z,100374.57
2019-02-12T04:44:36.132Z,100364.03
2019-02-12T04:47:02.738Z,100374.81
2019-02-12T04:49:29.291Z,100379.73
2019-02-12T04:51:55.832Z,100388.77
2019-02-12T04:54:22.466Z,100383.89
2019-02-12T04:56:49.092Z,100388.38
2019-02-12T04:59:15.708Z,100397.13
2019-02-12T05:01:42.361Z,100393.13
2019-02-12T05:04:08.931Z,100397.41
2019-02-12T05:06:35.493Z,100394.80
2019-02-12T05:09:07.768Z,100394.88
2019-02-12T05:11:34.472Z,100396.16
2019-02-12T05:14:01.068Z,100401.31
2019-02-12T05:16:27.621Z,100403.09
2019-02-12T05:18:55.926Z,100401.84
2019-02-12T05:21:22.670Z,100405.44
2019-02-12T05:23:49.276Z,100407.59
2019-02-12T05:26:15.926Z,100416.23
2019-02-12T05:28:42.615Z,100418.90
2019-02-12T05:31:09.221Z,100423.75
2019-02-12T05:33:35.829Z,100427.13
2019-02-12T05:36:02.444Z,100431.38
2019-02-12T05:38:29.038Z,100435.36
2019-02-12T05:40:55.705Z,100444.44
2019-02-12T05:43:22.299Z,100444.85
2019-02-12T05:45:49.007Z,100456.16
2019-02-12T05:48:15.614Z,100451.33
2019-02-12T05:50:42.405Z,100449.54
2019-02-12T05:53:09.103Z,100455.55
2019-02-12T05:55:35.650Z,100461.58
2019-02-12T05:58:02.266Z,100447.44
2019-02-12T06:00:30.743Z,100457.08
2019-02-12T06:02:57.323Z,100464.77
2019-02-12T06:05:28.651Z,100468.20
2019-02-12T06:07:58.036Z,100472.50
2019-02-12T06:10:26.073Z,100476.71
2019-02-12T06:12:52.761Z,100471.50
2019-02-12T06:15:19.863Z,100489.91
2019-02-12T06:17:46.442Z,100486.86
2019-02-12T06:20:13.006Z,100491.99
2019-02-12T06:22:39.659Z,100499.03
2019-02-12T06:25:08.266Z,100504.97
2019-02-12T06:27:34.735Z,100501.46
2019-02-12T06:30:01.434Z,100501.84
2019-02-12T06:32:27.986Z,100494.36
2019-02-12T06:34:54.672Z,100503.55
2019-02-12T06:37:21.277Z,100509.17
2019-02-12T06:39:47.834Z,100507.16
2019-02-12T06:42:14.470Z,100506.73
2019-02-12T06:44:41.242Z,100507.17
2019-02-12T06:47:07.978Z,100510.60
2019-02-12T06:49:34.549Z,100507.42
2019-02-12T06:52:01.127Z,100517.97
2019-02-12T06:54:27.688Z,100527.80
2019-02-12T06:56:54.361Z,100527.05
2019-02-12T06:59:20.920Z,100527.38
2019-02-12T07:01:47.617Z,100534.27
2019-02-12T07:04:14.423Z,100529.95
2019-02-12T07:06:46.850Z,100530.41
2019-02-12T07:09:17.257Z,100528.72
2019-02-12T07:11:49.736Z,100535.98
2019-02-12T07:14:20.114Z,100534.70
2019-02-12T07:16:52.512Z,100537.63
2019-02-12T07:19:24.906Z,100535.52
2019-02-12T07:21:57.331Z,100545.13
2019-02-12T07:24:29.692Z,100547.31
2019-02-12T07:27:02.086Z,100552.41
2019-02-12T07:29:34.425Z,100556.20
2019-02-12T07:32:04.949Z,100561.08
2019-02-12T07:34:35.415Z,100567.43
2019-02-12T07:37:05.923Z,100562.28
2019-02-12T07:39:38.204Z,100568.73
2019-02-12T07:42:08.708Z,100578.69
2019-02-12T07:44:41.143Z,100587.08
2019-02-12T07:47:13.485Z,100594.47
2019-02-12T07:49:45.892Z,100593.39
2019-02-12T07:52:18.202Z,100596.92
2019-02-12T07:54:50.554Z,100599.00
2019-02-12T07:57:23.006Z,100603.70
2019-02-12T07:59:55.440Z,100600.60
2019-02-12T08:02:27.789Z,100611.13
2019-02-12T08:05:00.204Z,100606.01
2019-02-12T08:07:32.760Z,100613.72
2019-02-12T08:10:06.393Z,100623.78
2019-02-12T08:12:38.738Z,100623.73
2019-02-12T08:15:09.159Z,100621.91
2019-02-12T08:17:41.587Z,100635.80
2019-02-12T08:20:15.026Z,100631.05
2019-02-12T08:22:47.521Z,100632.64
2019-02-12T08:25:19.814Z,100632.51
2019-02-12T08:27:52.214Z,100641.20
2019-02-12T08:30:24.515Z,100636.19
2019-02-12T08:32:57.048Z,100642.69
2019-02-12T08:35:29.369Z,100646.44
2019-02-12T08:37:59.934Z,100649.03
2019-02-12T08:40:30.415Z,100655.13
2019-02-12T08:43:02.739Z,100659.51
2019-02-12T08:45:35.132Z,100659.02
2019-02-12T08:48:05.646Z,100662.41
2019-02-12T08:50:38.094Z,100669.61
2019-02-12T08:53:10.504Z,100677.78
2019-02-12T08:55:42.837Z,100672.08
2019-02-12T08:58:15.165Z,100683.34
2019-02-12T09:00:47.658Z,100671.48
2019-02-12T09:03:20.097Z,100677.67
2019-02-12T09:05:52.573Z,100688.91
2019-02-12T09:08:24.945Z,100686.97
2019-02-12T09:10:58.405Z,100686.14
2019-02-12T09:13:31.695Z,100692.66
2019-02-12T09:16:04.045Z,100699.91
2019-02-12T09:18:34.487Z,100703.91
2019-02-12T09:21:06.936Z,100710.81
2019-02-12T09:23:37.390Z,100717.00
2019-02-12T09:26:09.755Z,100717.61
2019-02-12T09:28:42.100Z,100722.91
2019-02-12T09:31:14.409Z,100725.37
2019-02-12T09:33:45.133Z,100728.52
2019-02-12T09:36:17.473Z,100736.78
2019-02-12T09:38:48.001Z,100735.17
2019-02-12T09:41:20.270Z,100736.82
2019-02-12T09:43:52.629Z,100747.22
2019-02-12T09:46:23.044Z,100735.03
2019-02-12T09:48:55.497Z,100737.59
2019-02-12T09:51:27.796Z,100750.25
2019-02-12T09:54:08.426Z,100750.85
2019-02-12T09:56:34.503Z,100749.34
2019-02-12T09:59:06.848Z,100748.45
2019-02-12T10:01:39.159Z,100757.48
2019-02-12T10:04:09.693Z,100766.61
2019-02-12T10:06:42.052Z,100757.47
2019-02-12T10:09:14.497Z,100761.33
2019-02-12T10:11:47.021Z,100781.25
2019-02-12T10:14:19.506Z,100780.56
2019-02-12T10:16:49.985Z,100770.17
2019-02-12T10:19:22.329Z,100785.23
2019-02-12T10:21:54.710Z,100780.00
2019-02-12T10:24:27.174Z,100789.03
2019-02-12T10:26:59.520Z,100788.73
2019-02-12T10:29:31.930Z,100786.59
2019-02-12T10:31:58.507Z,100778.61
2019-02-12T10:34:25.074Z,100784.05
2019-02-12T10:36:51.668Z,100777.52
2019-02-12T10:39:18.682Z,100783.89
2019-02-12T10:41:45.243Z,100782.23
2019-02-12T10:44:11.779Z,100785.95
2019-02-12T10:46:38.413Z,100790.34
2019-02-12T10:49:04.993Z,100786.91
2019-02-12T10:51:31.542Z,100791.73
2019-02-12T10:53:58.164Z,100802.55
2019-02-12T10:56:24.836Z,100799.67
2019-02-12T10:58:51.532Z,100803.44
2019-02-12T11:01:18.082Z,100816.45
2019-02-12T11:04:41.097Z,100807.38
2019-02-12T11:07:07.823Z,100810.88
2019-02-12T11:09:34.437Z,100812.63
2019-02-12T11:12:01.023Z,100815.28
2019-02-12T11:14:27.634Z,100804.76
2019-02-12T11:16:54.202Z,100805.20
2019-02-12T11:19:20.804Z,100810.31
2019-02-12T11:21:47.377Z,100819.39
2019-02-12T11:24:14.070Z,100814.84
2019-02-12T11:26:40.814Z,100820.98
2019-02-12T11:29:07.409Z,100824.91
2019-02-12T11:31:34.042Z,100828.26
2019-02-12T11:34:00.652Z,100831.89
2019-02-12T11:36:27.197Z,100835.70
2019-02-12T11:38:53.855Z,100832.19
2019-02-12T11:41:20.514Z,100835.24
2019-02-12T11:43:47.099Z,100839.13
2019-02-12T11:46:13.700Z,100847.77
2019-02-12T11:48:40.356Z,100843.92
2019-02-12T11:51:06.950Z,100853.52
2019-02-12T11:53:33.654Z,100855.71
2019-02-12T11:56:00.250Z,100852.62
2019-02-12T11:58:26.796Z,100851.80
2019-02-12T12:00:55.314Z,100870.41
2019-02-12T12:03:21.917Z,100863.00
2019-02-12T12:05:49.162Z,100882.20
2019-02-12T12:08:15.823Z,100875.65
2019-02-12T12:11:39.760Z,100872.16
2019-02-12T12:14:06.439Z,100881.25
2019-02-12T12:16:32.997Z,100886.91
2019-02-12T12:18:59.584Z,100885.99
2019-02-12T12:21:27.308Z,100883.83
2019-02-12T12:23:53.870Z,100892.88
2019-02-12T12:27:19.833Z,100891.56
2019-02-12T12:29:46.499Z,100896.34
2019-02-12T12:32:13.134Z,100894.97
2019-02-12T12:34:39.762Z,100902.38
2019-02-12T12:37:06.489Z,100909.26
2019-02-12T12:39:33.062Z,100902.38
2019-02-12T12:42:01.757Z,100911.86
2019-02-12T12:44:28.570Z,100901.43
2019-02-12T12:46:57.038Z,100909.64
2019-02-12T12:49:23.647Z,100918.39
2019-02-12T12:51:50.271Z,100925.36
2019-02-12T12:54:16.843Z,100928.81
2019-02-12T12:56:43.396Z,100933.14
2019-02-12T12:59:10.048Z,100937.49
2019-02-12T13:01:36.711Z,100931.75
2019-02-12T13:04:03.286Z,100945.72
2019-02-12T13:06:29.870Z,100944.32
2019-02-12T13:08:56.517Z,100946.59
2019-02-12T13:11:23.063Z,100945.68
2019-02-12T13:13:50.742Z,100950.82
2019-02-12T13:16:17.350Z,100957.79
2019-02-12T13:18:43.922Z,100957.44
2019-02-12T13:21:10.498Z,100965.16
2019-02-12T13:23:37.117Z,100969.55
2019-02-12T13:26:03.725Z,100967.44
2019-02-12T13:28:30.380Z,100971.75
2019-02-12T13:30:57.103Z,100975.26
2019-02-12T13:33:23.736Z,100980.51
2019-02-12T13:35:50.339Z,100979.16
2019-02-12T13:38:16.888Z,100986.03
2019-02-12T13:40:43.460Z,100988.62
2019-02-12T13:43:10.253Z,100984.30
2019-02-12T13:45:36.919Z,100991.28
2019-02-12T13:48:03.537Z,100987.69
2019-02-12T13:50:30.168Z,100993.67
2019-02-12T13:52:56.700Z,100998.08
2019-02-12T13:55:23.276Z,101004.58
2019-02-12T13:57:49.894Z,101008.48
2019-02-12T14:00:18.199Z,101009.87
2019-02-12T14:02:44.880Z,101014.17
2019-02-12T14:05:16.559Z,101012.87
2019-02-12T14:07:43.275Z,101015.92
2019-02-12T14:10:10.121Z,101028.44
2019-02-12T14:12:36.674Z,101033.65
2019-02-12T14:15:08.708Z,101040.65
2019-02-12T14:17:35.301Z,101040.66
2019-02-12T14:20:04.555Z,101052.28
2019-02-12T14:22:31.216Z,101046.27
2019-02-12T14:24:57.940Z,101050.66
2019-02-12T14:27:25.498Z,101050.61
2019-02-12T14:29:52.067Z,101057.56
2019-02-12T14:32:18.670Z,101066.61
2019-02-12T14:34:45.285Z,101061.81
2019-02-12T14:37:11.833Z,101062.32
2019-02-12T14:39:38.417Z,101067.03
2019-02-12T14:42:05.045Z,101068.36
2019-02-12T14:44:31.629Z,101073.61
2019-02-12T14:46:58.226Z,101084.45
2019-02-12T14:49:24.851Z,101084.48
2019-02-12T14:51:51.432Z,101095.39
2019-02-12T14:54:18.027Z,101098.42
2019-02-12T14:56:45.058Z,101105.77
2019-02-12T14:59:12.799Z,101112.30
2019-02-12T15:01:39.395Z,101135.33
2019-02-12T15:04:05.955Z,101130.59
2019-02-12T15:06:32.597Z,101130.61
2019-02-12T15:08:59.211Z,101137.10
2019-02-12T15:11:25.839Z,101138.84
2019-02-12T15:13:52.424Z,101147.94
2019-02-12T15:16:18.988Z,101146.21
2019-02-12T15:18:45.562Z,101151.85
2019-02-12T15:21:12.191Z,101151.84
2019-02-12T15:23:38.776Z,101167.45
2019-02-12T15:26:05.304Z,101161.83
2019-02-12T15:28:31.948Z,101176.58
2019-02-12T15:30:58.517Z,101180.06
2019-02-12T15:33:27.011Z,101183.09
2019-02-12T15:35:53.578Z,101192.19
2019-02-12T15:38:20.154Z,101195.66
2019-02-12T15:40:46.982Z,101199.55
2019-02-12T15:43:13.646Z,101201.75
2019-02-12T15:45:40.319Z,101212.16
2019-02-12T15:48:06.914Z,101217.79
2019-02-12T15:50:33.490Z,101215.17
2019-02-12T15:53:00.019Z,101215.63
2019-02-12T15:55:26.611Z,101216.48
2019-02-12T15:57:53.270Z,101239.89
2019-02-12T16:00:20.711Z,101240.30
2019-02-12T16:02:48.609Z,101243.81
2019-02-12T16:05:15.285Z,101246.83
2019-02-12T16:07:42.697Z,101260.25
2019-02-12T16:10:17.074Z,101263.33
2019-02-12T16:12:44.162Z,101273.29
2019-02-12T16:15:13.654Z,101275.03
2019-02-12T16:17:40.246Z,101288.48
2019-02-12T16:20:07.570Z,101286.72
2019-02-12T16:22:34.256Z,101285.86
2019-02-12T16:25:01.200Z,101295.00
2019-02-12T16:27:27.939Z,101302.77
2019-02-12T16:29:54.489Z,101305.38
2019-02-12T16:32:21.086Z,101317.09
2019-02-12T16:34:47.690Z,101321.02
2019-02-12T16:37:14.341Z,101328.80
2019-02-12T16:39:41.075Z,101328.78
2019-02-12T16:42:07.766Z,101327.44
2019-02-12T16:44:34.590Z,101333.09
2019-02-12T16:47:01.387Z,101340.05
2019-02-12T16:49:28.081Z,101346.11
2019-02-12T16:51:56.560Z,101359.88
2019-02-12T16:54:23.131Z,101356.95
2019-02-12T16:56:49.737Z,101371.67
2019-02-12T16:59:16.353Z,101372.06
2019-02-12T17:01:42.977Z,101380.33
2019-02-12T17:04:09.728Z,101377.72
2019-02-12T17:06:36.341Z,101380.23
2019-02-12T17:09:04.138Z,101397.56
2019-02-12T17:11:31.728Z,101389.78
2019-02-12T17:16:45.778Z,101404.44
2019-02-12T17:19:12.553Z,101409.69
2019-02-12T17:21:39.121Z,101416.61
2019-02-12T17:24:06.008Z,101419.08
2019-02-12T17:26:32.577Z,101423.05
2019-02-12T17:28:59.238Z,101424.28
2019-02-12T17:31:25.921Z,101432.48
2019-02-12T17:33:53.648Z,101432.09
2019-02-12T17:36:20.466Z,101446.80
2019-02-12T17:38:47.165Z,101446.02
2019-02-12T17:41:13.717Z,101447.59
2019-02-12T17:43:40.507Z,101448.41
2019-02-12T17:46:07.108Z,101449.69
2019-02-12T17:48:33.701Z,101456.21
2019-02-12T17:51:00.253Z,101464.83
2019-02-12T17:53:26.926Z,101466.95
2019-02-12T17:55:53.560Z,101473.06
2019-02-12T17:58:20.218Z,101472.25
2019-02-12T18:00:46.826Z,101471.30
2019-02-12T18:03:13.463Z,101481.27
2019-02-12T18:05:40.099Z,101481.55
2019-02-12T18:08:06.760Z,101480.67
2019-02-12T18:10:33.390Z,101485.92
2019-02-12T18:12:59.909Z,101489.38
2019-02-12T18:15:26.607Z,101494.55
2019-02-12T18:17:53.354Z,101492.73
2019-02-12T18:20:26.354Z,101493.17
2019-02-12T18:22:48.957Z,101497.12
2019-02-12T18:25:15.542Z,101512.54
2019-02-12T18:27:42.418Z,101515.11
2019-02-12T18:30:14.547Z,101517.28
2019-02-12T18:32:41.312Z,101513.45
2019-02-12T18:35:08.358Z,101519.81
2019-02-12T18:37:35.132Z,101513.30
2019-02-12T18:40:05.719Z,101522.08
2019-02-12T18:42:32.327Z,101515.44
2019-02-12T18:44:58.923Z,101526.27
2019-02-12T18:47:29.460Z,101521.87
2019-02-12T18:49:56.527Z,101532.52
2019-02-12T18:52:23.102Z,101527.83
2019-02-12T18:54:49.906Z,101535.47
2019-02-12T18:57:16.511Z,101537.20
2019-02-12T18:59:43.305Z,101540.27
2019-02-12T19:02:10.715Z,101541.16
2019-02-12T19:04:37.473Z,101546.88
2019-02-12T19:07:04.073Z,101549.89
2019-02-12T19:09:33.492Z,101551.61
2019-02-12T19:12:00.065Z,101554.92
2019-02-12T19:14:26.689Z,101553.48
2019-02-12T19:16:53.396Z,101554.36
2019-02-12T19:19:19.980Z,101553.15
2019-02-12T19:21:46.622Z,101565.82
2019-02-12T19:25:09.645Z,101557.81
2019-02-12T19:27:36.323Z,101566.11
2019-02-12T19:30:08.735Z,101567.86
2019-02-12T19:32:35.359Z,101563.93
2019-02-12T19:35:05.337Z,101564.70
2019-02-12T19:37:31.941Z,101572.02
2019-02-12T19:39:58.587Z,101573.34
2019-02-12T19:42:25.187Z,101579.01
2019-02-12T19:44:51.794Z,101580.66
2019-02-12T19:47:18.662Z,101582.11
2019-02-12T19:49:45.337Z,101590.06
2019-02-12T19:52:12.081Z,101593.52
2019-02-12T19:54:38.661Z,101592.03
2019-02-12T19:57:05.197Z,101603.36
2019-02-12T19:59:32.918Z,101603.36
2019-02-12T20:01:59.586Z,101603.77
2019-02-12T20:04:26.199Z,101613.93
2019-02-12T20:06:52.855Z,101617.28
2019-02-12T20:09:20.033Z,101621.00
2019-02-12T20:11:46.615Z,101626.83
2019-02-12T20:14:13.286Z,101625.70
2019-02-12T20:16:40.070Z,101619.83
2019-02-12T20:19:06.853Z,101623.09
2019-02-12T20:21:33.529Z,101630.41
2019-02-12T20:24:00.638Z,101631.23
2019-02-12T20:26:27.406Z,101634.62
2019-02-12T20:28:53.958Z,101636.33
2019-02-12T20:31:20.522Z,101639.12
2019-02-12T20:33:47.255Z,101640.08
2019-02-12T20:36:14.127Z,101643.73
2019-02-12T20:38:40.851Z,101646.52
2019-02-12T20:41:07.873Z,101650.52
2019-02-12T20:43:34.552Z,101654.09
2019-02-12T20:46:02.865Z,101642.55
2019-02-12T20:48:30.508Z,101648.98
2019-02-12T20:51:11.709Z,101654.17
2019-02-12T20:53:38.574Z,101646.46
2019-02-12T20:56:05.569Z,101648.45
2019-02-12T20:58:32.194Z,101648.58
2019-02-12T21:00:58.784Z,101647.83
2019-02-12T21:03:25.582Z,101655.48
2019-02-12T21:05:55.249Z,101645.98
2019-02-12T21:08:22.359Z,101647.97
2019-02-12T21:10:48.975Z,101645.91
2019-02-12T21:13:20.919Z,101639.16
2019-02-12T21:15:57.322Z,101642.74
2019-02-12T21:18:24.100Z,101651.77
2019-02-12T21:20:51.208Z,101659.12
2019-02-12T21:23:17.768Z,101650.82
2019-02-12T21:25:44.397Z,101650.89
2019-02-12T21:28:11.228Z,101658.84
2019-02-12T21:30:42.197Z,101664.92
2019-02-12T21:33:08.861Z,101668.20
2019-02-12T21:35:41.987Z,101661.80
2019-02-12T21:38:10.987Z,101666.06
2019-02-12T21:40:37.569Z,101669.11
2019-02-12T21:43:04.546Z,101660.33
2019-02-12T21:45:33.144Z,101660.84
2019-02-12T21:47:59.916Z,101666.85
2019-02-12T21:50:26.594Z,101671.07
2019-02-12T21:52:53.246Z,101674.34
2019-02-12T21:55:21.039Z,101671.48
2019-02-12T21:57:47.779Z,101672.53
2019-02-12T22:00:16.534Z,101677.34
2019-02-12T22:02:43.380Z,101674.42
2019-02-12T22:05:13.045Z,101671.16
2019-02-12T22:07:39.741Z,101684.73
2019-02-12T22:10:12.185Z,101683.77
2019-02-12T22:12:38.973Z,101686.44
2019-02-12T22:15:10.175Z,101690.08
2019-02-12T22:17:38.582Z,101692.17
2019-02-12T22:20:09.879Z,101700.09
2019-02-12T22:22:36.495Z,101700.17
2019-02-12T22:25:05.966Z,101699.80
2019-02-12T22:27:40.074Z,101705.84
2019-02-12T22:30:01.124Z,101712.52
2019-02-12T22:32:27.727Z,101717.08
2019-02-12T22:34:54.279Z,101716.33
2019-02-12T22:37:20.877Z,101718.28
2019-02-12T22:39:47.622Z,101724.58
2019-02-12T22:42:14.189Z,101725.22
2019-02-12T22:44:40.781Z,101723.83
2019-02-12T22:47:07.442Z,101728.87
2019-02-12T22:49:34.240Z,101726.97
2019-02-12T22:52:00.986Z,101734.66
2019-02-12T22:54:27.592Z,101723.98
2019-02-12T22:56:54.165Z,101729.86
2019-02-12T22:59:20.755Z,101725.45
2019-02-12T23:01:47.382Z,101732.30
2019-02-12T23:04:13.994Z,101735.27
2019-02-12T23:06:40.635Z,101733.97
2019-02-12T23:09:09.177Z,101735.75
2019-02-12T23:11:35.854Z,101730.77
2019-02-12T23:14:02.450Z,101737.12
2019-02-12T23:16:29.125Z,101737.95
2019-02-12T23:18:55.730Z,101731.42
2019-02-12T23:21:22.408Z,101733.61
2019-02-12T23:23:48.972Z,101725.33
2019-02-12T23:26:15.525Z,101733.06
2019-02-12T23:28:42.367Z,101718.66
2019-02-12T23:31:08.963Z,101722.77
2019-02-12T23:33:35.548Z,101733.92
2019-02-12T23:36:02.526Z,101737.47
2019-02-12T23:38:29.036Z,101733.95
2019-02-12T23:40:56.103Z,101734.87
2019-02-12T23:43:22.693Z,101745.17
2019-02-12T23:45:49.268Z,101736.66
2019-02-12T23:48:15.901Z,101743.88
2019-02-12T23:50:42.606Z,101746.34
2019-02-12T23:53:09.253Z,101743.25
2019-02-12T23:55:35.876Z,101736.22
2019-02-12T23:58:05.951Z,101746.20
